sensor_id;sensor_type;location;lat;lon;timestamp;temperature;humidity
9824;DHT22;4951;50.778;7.196;2022-12-24T00:01:47;11.10;99.90
9824;DHT22;4951;50.778;7.196;2022-12-24T00:04:19;11.10;29.30
9824;DHT22;4951;50.778;7.196;2022-12-24T00:06:50;11.10;1.00
9824;DHT22;4951;50.778;7.196;2022-12-24T00:09:32;11.10;1.00
9824;DHT22;4951;50.778;7.196;2022-12-24T00:12:12;11.10;1.00
9824;DHT22;4951;50.778;7.196;2022-12-24T00:14:43;11.00;1.00
9824;DHT22;4951;50.778;7.196;2022-12-24T00:17:14;10.90;1.00
9824;DHT22;4951;50.778;7.196;2022-12-24T00:19:58;10.90;1.00
9824;DHT22;4951;50.778;7.196;2022-12-24T00:22:29;10.90;1.00
9824;DHT22;4951;50.778;7.196;2022-12-24T00:25:08;10.80;1.00
9824;DHT22;4951;50.778;7.196;2022-12-24T00:27:41;10.80;1.00
9824;DHT22;4951;50.778;7.196;2022-12-24T00:30:11;10.80;1.00
9824;DHT22;4951;50.778;7.196;2022-12-24T00:32:39;10.70;1.00
9824;DHT22;4951;50.778;7.196;2022-12-24T00:35:10;10.60;1.00
9824;DHT22;4951;50.778;7.196;2022-12-24T00:37:47;10.50;99.90
9824;DHT22;4951;50.778;7.196;2022-12-24T00:40:40;10.40;99.90
9824;DHT22;4951;50.778;7.196;2022-12-24T00:43:13;10.30;99.90
9824;DHT22;4951;50.778;7.196;2022-12-24T00:45:58;10.30;1.00
9824;DHT22;4951;50.778;7.196;2022-12-24T00:48:30;10.40;1.00
9824;DHT22;4951;50.778;7.196;2022-12-24T00:51:00;10.50;1.00
9824;DHT22;4951;50.778;7.196;2022-12-24T00:53:27;10.50;1.00
9824;DHT22;4951;50.778;7.196;2022-12-24T00:55:57;10.60;1.00
9824;DHT22;4951;50.778;7.196;2022-12-24T00:58:26;10.60;99.90
9824;DHT22;4951;50.778;7.196;2022-12-24T01:00:58;10.60;99.90
9824;DHT22;4951;50.778;7.196;2022-12-24T01:03:33;10.70;99.90
9824;DHT22;4951;50.778;7.196;2022-12-24T01:06:05;10.70;99.90
9824;DHT22;4951;50.778;7.196;2022-12-24T01:08:55;10.70;99.90
9824;DHT22;4951;50.778;7.196;2022-12-24T01:11:24;10.70;99.90
9824;DHT22;4951;50.778;7.196;2022-12-24T01:13:51;10.80;99.90
9824;DHT22;4951;50.778;7.196;2022-12-24T01:16:21;10.90;99.90
9824;DHT22;4951;50.778;7.196;2022-12-24T01:18:53;10.90;99.90
9824;DHT22;4951;50.778;7.196;2022-12-24T01:21:27;10.90;99.90
9824;DHT22;4951;50.778;7.196;2022-12-24T01:23:56;10.90;99.90
9824;DHT22;4951;50.778;7.196;2022-12-24T01:26:23;11.00;99.90
9824;DHT22;4951;50.778;7.196;2022-12-24T01:29:07;11.00;99.90
9824;DHT22;4951;50.778;7.196;2022-12-24T01:31:34;11.00;99.90
9824;DHT22;4951;50.778;7.196;2022-12-24T01:34:12;11.10;42.40
9824;DHT22;4951;50.778;7.196;2022-12-24T01:36:52;11.10;99.90
9824;DHT22;4951;50.778;7.196;2022-12-24T01:39:21;11.10;80.10
9824;DHT22;4951;50.778;7.196;2022-12-24T01:41:51;11.10;91.30
9824;DHT22;4951;50.778;7.196;2022-12-24T01:44:46;11.10;1.00
9824;DHT22;4951;50.778;7.196;2022-12-24T01:47:16;11.10;1.00
9824;DHT22;4951;50.778;7.196;2022-12-24T01:50:14;11.10;1.00
9824;DHT22;4951;50.778;7.196;2022-12-24T01:52:52;11.10;1.00
9824;DHT22;4951;50.778;7.196;2022-12-24T01:55:21;11.10;46.30
9824;DHT22;4951;50.778;7.196;2022-12-24T01:57:58;11.10;99.90
9824;DHT22;4951;50.778;7.196;2022-12-24T02:00:28;11.10;99.90
9824;DHT22;4951;50.778;7.196;2022-12-24T02:02:55;11.10;99.90
9824;DHT22;4951;50.778;7.196;2022-12-24T02:05:37;11.10;99.90
9824;DHT22;4951;50.778;7.196;2022-12-24T02:08:26;11.00;99.90
9824;DHT22;4951;50.778;7.196;2022-12-24T02:11:11;11.00;99.90
9824;DHT22;4951;50.778;7.196;2022-12-24T02:13:41;10.90;99.90
9824;DHT22;4951;50.778;7.196;2022-12-24T02:16:26;10.90;1.00
9824;DHT22;4951;50.778;7.196;2022-12-24T02:19:26;10.80;1.00
9824;DHT22;4951;50.778;7.196;2022-12-24T02:22:07;10.80;1.00
9824;DHT22;4951;50.778;7.196;2022-12-24T02:25:13;10.70;1.00
9824;DHT22;4951;50.778;7.196;2022-12-24T02:27:54;10.70;1.00
9824;DHT22;4951;50.778;7.196;2022-12-24T02:30:56;10.70;1.00
9824;DHT22;4951;50.778;7.196;2022-12-24T02:33:33;10.60;1.00
9824;DHT22;4951;50.778;7.196;2022-12-24T02:36:10;10.50;1.00
9824;DHT22;4951;50.778;7.196;2022-12-24T02:38:50;10.40;1.00
9824;DHT22;4951;50.778;7.196;2022-12-24T02:41:40;10.40;1.00
9824;DHT22;4951;50.778;7.196;2022-12-24T02:44:48;10.30;1.00
9824;DHT22;4951;50.778;7.196;2022-12-24T02:47:28;10.30;1.00
9824;DHT22;4951;50.778;7.196;2022-12-24T02:49:56;10.20;1.00
9824;DHT22;4951;50.778;7.196;2022-12-24T02:52:34;10.20;18.10
9824;DHT22;4951;50.778;7.196;2022-12-24T02:55:16;10.10;93.30
9824;DHT22;4951;50.778;7.196;2022-12-24T02:58:13;10.20;99.90
9824;DHT22;4951;50.778;7.196;2022-12-24T03:01:02;10.30;99.90
9824;DHT22;4951;50.778;7.196;2022-12-24T03:04:17;10.30;99.90
9824;DHT22;4951;50.778;7.196;2022-12-24T03:07:17;10.50;99.90
9824;DHT22;4951;50.778;7.196;2022-12-24T03:10:10;10.50;93.40
9824;DHT22;4951;50.778;7.196;2022-12-24T03:12:53;10.50;45.50
9824;DHT22;4951;50.778;7.196;2022-12-24T03:15:27;10.60;7.10
9824;DHT22;4951;50.778;7.196;2022-12-24T03:18:04;10.60;1.00
9824;DHT22;4951;50.778;7.196;2022-12-24T03:20:40;10.70;1.00
9824;DHT22;4951;50.778;7.196;2022-12-24T03:23:38;10.70;1.00
9824;DHT22;4951;50.778;7.196;2022-12-24T03:26:08;10.70;1.00
9824;DHT22;4951;50.778;7.196;2022-12-24T03:28:49;10.80;1.00
9824;DHT22;4951;50.778;7.196;2022-12-24T03:31:21;10.80;1.00
9824;DHT22;4951;50.778;7.196;2022-12-24T03:33:49;10.70;1.00
9824;DHT22;4951;50.778;7.196;2022-12-24T03:36:21;10.60;61.30
9824;DHT22;4951;50.778;7.196;2022-12-24T03:38:57;10.50;99.90
9824;DHT22;4951;50.778;7.196;2022-12-24T03:41:25;10.30;99.90
9824;DHT22;4951;50.778;7.196;2022-12-24T03:43:58;10.20;99.90
9824;DHT22;4951;50.778;7.196;2022-12-24T03:46:29;10.00;99.90
9824;DHT22;4951;50.778;7.196;2022-12-24T03:48:57;9.90;1.00
9824;DHT22;4951;50.778;7.196;2022-12-24T03:52:11;9.80;1.00
9824;DHT22;4951;50.778;7.196;2022-12-24T03:54:40;9.70;1.00
9824;DHT22;4951;50.778;7.196;2022-12-24T03:57:13;9.70;1.00
9824;DHT22;4951;50.778;7.196;2022-12-24T03:59:43;9.60;1.00
9824;DHT22;4951;50.778;7.196;2022-12-24T04:02:21;9.60;1.00
9824;DHT22;4951;50.778;7.196;2022-12-24T04:04:50;9.50;1.00
9824;DHT22;4951;50.778;7.196;2022-12-24T04:07:20;9.50;1.00
9824;DHT22;4951;50.778;7.196;2022-12-24T04:09:48;9.50;1.00
9824;DHT22;4951;50.778;7.196;2022-12-24T04:12:18;9.40;1.00
9824;DHT22;4951;50.778;7.196;2022-12-24T04:15:01;9.40;1.00
9824;DHT22;4951;50.778;7.196;2022-12-24T04:17:43;9.40;1.00
9824;DHT22;4951;50.778;7.196;2022-12-24T04:20:11;9.40;1.00
9824;DHT22;4951;50.778;7.196;2022-12-24T04:22:50;9.40;1.00
9824;DHT22;4951;50.778;7.196;2022-12-24T04:25:32;9.40;1.00
9824;DHT22;4951;50.778;7.196;2022-12-24T04:28:10;9.30;1.00
9824;DHT22;4951;50.778;7.196;2022-12-24T04:30:58;9.30;15.50
9824;DHT22;4951;50.778;7.196;2022-12-24T04:33:43;9.20;51.30
9824;DHT22;4951;50.778;7.196;2022-12-24T04:36:21;9.20;76.50
9824;DHT22;4951;50.778;7.196;2022-12-24T04:38:51;9.20;99.20
9824;DHT22;4951;50.778;7.196;2022-12-24T04:41:21;9.20;99.90
9824;DHT22;4951;50.778;7.196;2022-12-24T04:43:55;9.10;99.90
9824;DHT22;4951;50.778;7.196;2022-12-24T04:46:32;9.10;99.90
9824;DHT22;4951;50.778;7.196;2022-12-24T04:49:15;9.00;99.90
9824;DHT22;4951;50.778;7.196;2022-12-24T04:51:45;9.00;99.90
9824;DHT22;4951;50.778;7.196;2022-12-24T04:54:21;9.00;99.90
9824;DHT22;4951;50.778;7.196;2022-12-24T04:56:55;8.90;99.90
9824;DHT22;4951;50.778;7.196;2022-12-24T04:59:40;8.90;99.90
9824;DHT22;4951;50.778;7.196;2022-12-24T05:02:09;8.80;99.90
9824;DHT22;4951;50.778;7.196;2022-12-24T05:04:39;8.80;99.90
9824;DHT22;4951;50.778;7.196;2022-12-24T05:07:20;8.80;99.90
9824;DHT22;4951;50.778;7.196;2022-12-24T05:09:50;8.80;99.90
9824;DHT22;4951;50.778;7.196;2022-12-24T05:12:33;8.70;99.90
9824;DHT22;4951;50.778;7.196;2022-12-24T05:15:00;8.70;99.90
9824;DHT22;4951;50.778;7.196;2022-12-24T05:17:32;8.70;99.90
9824;DHT22;4951;50.778;7.196;2022-12-24T05:19:59;8.60;99.90
9824;DHT22;4951;50.778;7.196;2022-12-24T05:22:26;8.60;99.90
9824;DHT22;4951;50.778;7.196;2022-12-24T05:25:25;8.60;99.90
9824;DHT22;4951;50.778;7.196;2022-12-24T05:28:15;8.50;99.90
9824;DHT22;4951;50.778;7.196;2022-12-24T05:30:44;8.50;99.90
9824;DHT22;4951;50.778;7.196;2022-12-24T05:33:11;8.50;99.90
9824;DHT22;4951;50.778;7.196;2022-12-24T05:35:38;8.50;99.90
9824;DHT22;4951;50.778;7.196;2022-12-24T05:38:05;8.50;99.90
9824;DHT22;4951;50.778;7.196;2022-12-24T05:40:35;8.50;99.90
9824;DHT22;4951;50.778;7.196;2022-12-24T05:43:15;8.50;99.90
9824;DHT22;4951;50.778;7.196;2022-12-24T05:48:42;8.50;99.90
9824;DHT22;4951;50.778;7.196;2022-12-24T05:51:17;8.50;99.90
9824;DHT22;4951;50.778;7.196;2022-12-24T05:53:56;8.50;99.90
9824;DHT22;4951;50.778;7.196;2022-12-24T05:56:43;8.50;99.90
9824;DHT22;4951;50.778;7.196;2022-12-24T05:59:27;8.50;99.90
9824;DHT22;4951;50.778;7.196;2022-12-24T06:01:56;8.50;99.90
9824;DHT22;4951;50.778;7.196;2022-12-24T06:04:27;8.50;99.90
9824;DHT22;4951;50.778;7.196;2022-12-24T06:07:02;8.50;99.90
9824;DHT22;4951;50.778;7.196;2022-12-24T06:09:43;8.50;99.90
9824;DHT22;4951;50.778;7.196;2022-12-24T06:12:11;8.60;99.90
9824;DHT22;4951;50.778;7.196;2022-12-24T06:14:40;8.70;99.90
9824;DHT22;4951;50.778;7.196;2022-12-24T06:17:20;8.80;99.90
9824;DHT22;4951;50.778;7.196;2022-12-24T06:19:49;8.80;99.90
9824;DHT22;4951;50.778;7.196;2022-12-24T06:22:20;8.90;99.90
9824;DHT22;4951;50.778;7.196;2022-12-24T06:24:53;9.00;99.90
9824;DHT22;4951;50.778;7.196;2022-12-24T06:27:36;9.00;99.90
9824;DHT22;4951;50.778;7.196;2022-12-24T06:30:07;9.00;99.90
9824;DHT22;4951;50.778;7.196;2022-12-24T06:32:39;9.00;99.90
9824;DHT22;4951;50.778;7.196;2022-12-24T06:35:06;9.00;99.90
9824;DHT22;4951;50.778;7.196;2022-12-24T06:37:33;8.90;99.90
9824;DHT22;4951;50.778;7.196;2022-12-24T06:40:01;8.80;99.90
9824;DHT22;4951;50.778;7.196;2022-12-24T06:42:37;8.70;99.90
9824;DHT22;4951;50.778;7.196;2022-12-24T06:45:07;8.60;99.90
9824;DHT22;4951;50.778;7.196;2022-12-24T06:47:35;8.70;99.90
9824;DHT22;4951;50.778;7.196;2022-12-24T06:50:10;8.70;99.90
9824;DHT22;4951;50.778;7.196;2022-12-24T06:52:51;8.70;99.90
9824;DHT22;4951;50.778;7.196;2022-12-24T06:55:23;8.80;99.90
9824;DHT22;4951;50.778;7.196;2022-12-24T06:57:55;8.70;99.90
9824;DHT22;4951;50.778;7.196;2022-12-24T07:00:29;8.70;99.90
9824;DHT22;4951;50.778;7.196;2022-12-24T07:02:57;8.70;99.90
9824;DHT22;4951;50.778;7.196;2022-12-24T07:05:32;8.70;99.90
9824;DHT22;4951;50.778;7.196;2022-12-24T07:08:06;8.70;99.90
9824;DHT22;4951;50.778;7.196;2022-12-24T07:10:38;8.70;99.90
9824;DHT22;4951;50.778;7.196;2022-12-24T07:13:27;8.70;99.90
9824;DHT22;4951;50.778;7.196;2022-12-24T07:16:04;8.70;99.90
9824;DHT22;4951;50.778;7.196;2022-12-24T07:18:39;8.60;99.90
9824;DHT22;4951;50.778;7.196;2022-12-24T07:21:12;8.50;99.90
9824;DHT22;4951;50.778;7.196;2022-12-24T07:23:52;8.40;99.90
9824;DHT22;4951;50.778;7.196;2022-12-24T07:26:31;8.40;99.90
9824;DHT22;4951;50.778;7.196;2022-12-24T07:29:07;8.30;99.90
9824;DHT22;4951;50.778;7.196;2022-12-24T07:31:40;8.20;99.90
9824;DHT22;4951;50.778;7.196;2022-12-24T07:41:01;8.10;99.90
9824;DHT22;4951;50.778;7.196;2022-12-24T07:43:42;8.10;99.90
9824;DHT22;4951;50.778;7.196;2022-12-24T07:46:16;8.00;99.90
9824;DHT22;4951;50.778;7.196;2022-12-24T07:48:54;8.00;99.90
9824;DHT22;4951;50.778;7.196;2022-12-24T07:51:39;8.00;99.90
9824;DHT22;4951;50.778;7.196;2022-12-24T07:54:07;8.10;99.90
9824;DHT22;4951;50.778;7.196;2022-12-24T07:56:40;8.10;99.90
9824;DHT22;4951;50.778;7.196;2022-12-24T07:59:18;8.20;99.90
9824;DHT22;4951;50.778;7.196;2022-12-24T08:01:52;8.20;99.90
9824;DHT22;4951;50.778;7.196;2022-12-24T08:04:20;8.20;99.90
9824;DHT22;4951;50.778;7.196;2022-12-24T08:06:49;8.20;99.90
9824;DHT22;4951;50.778;7.196;2022-12-24T08:09:30;8.20;99.90
9824;DHT22;4951;50.778;7.196;2022-12-24T08:12:00;8.20;99.90
9824;DHT22;4951;50.778;7.196;2022-12-24T08:14:43;8.20;99.90
9824;DHT22;4951;50.778;7.196;2022-12-24T08:17:15;8.20;99.90
9824;DHT22;4951;50.778;7.196;2022-12-24T08:19:53;8.20;99.90
9824;DHT22;4951;50.778;7.196;2022-12-24T08:22:22;8.30;99.90
9824;DHT22;4951;50.778;7.196;2022-12-24T08:25:27;8.40;99.90
9824;DHT22;4951;50.778;7.196;2022-12-24T08:27:56;8.60;99.90
9824;DHT22;4951;50.778;7.196;2022-12-24T08:30:42;8.60;99.90
9824;DHT22;4951;50.778;7.196;2022-12-24T08:33:23;8.80;99.90
9824;DHT22;4951;50.778;7.196;2022-12-24T08:36:01;8.90;99.90
9824;DHT22;4951;50.778;7.196;2022-12-24T08:38:30;9.00;99.90
9824;DHT22;4951;50.778;7.196;2022-12-24T08:41:05;9.10;99.90
9824;DHT22;4951;50.778;7.196;2022-12-24T08:43:42;9.20;99.90
9824;DHT22;4951;50.778;7.196;2022-12-24T08:46:16;9.30;99.90
9824;DHT22;4951;50.778;7.196;2022-12-24T08:49:11;9.40;99.90
9824;DHT22;4951;50.778;7.196;2022-12-24T08:51:40;9.50;99.90
9824;DHT22;4951;50.778;7.196;2022-12-24T08:54:09;9.70;99.90
9824;DHT22;4951;50.778;7.196;2022-12-24T08:56:48;9.70;99.90
9824;DHT22;4951;50.778;7.196;2022-12-24T08:59:40;9.90;99.90
9824;DHT22;4951;50.778;7.196;2022-12-24T09:02:08;10.00;99.90
9824;DHT22;4951;50.778;7.196;2022-12-24T09:04:39;10.10;99.90
9824;DHT22;4951;50.778;7.196;2022-12-24T09:07:12;10.20;99.90
9824;DHT22;4951;50.778;7.196;2022-12-24T09:09:51;10.30;91.90
9824;DHT22;4951;50.778;7.196;2022-12-24T09:12:51;10.30;29.80
9824;DHT22;4951;50.778;7.196;2022-12-24T09:15:19;10.40;1.00
9824;DHT22;4951;50.778;7.196;2022-12-24T09:17:52;10.40;1.00
9824;DHT22;4951;50.778;7.196;2022-12-24T09:20:21;10.40;1.00
9824;DHT22;4951;50.778;7.196;2022-12-24T09:22:48;10.40;1.00
9824;DHT22;4951;50.778;7.196;2022-12-24T09:25:15;10.40;1.00
9824;DHT22;4951;50.778;7.196;2022-12-24T09:27:43;10.40;1.00
9824;DHT22;4951;50.778;7.196;2022-12-24T09:30:16;10.40;1.00
9824;DHT22;4951;50.778;7.196;2022-12-24T09:32:51;10.50;1.00
9824;DHT22;4951;50.778;7.196;2022-12-24T09:35:24;10.50;1.00
9824;DHT22;4951;50.778;7.196;2022-12-24T09:37:59;10.50;1.00
9824;DHT22;4951;50.778;7.196;2022-12-24T09:40:35;10.50;1.00
9824;DHT22;4951;50.778;7.196;2022-12-24T09:43:12;10.60;1.00
9824;DHT22;4951;50.778;7.196;2022-12-24T09:45:45;10.60;1.00
9824;DHT22;4951;50.778;7.196;2022-12-24T09:48:26;10.60;1.00
9824;DHT22;4951;50.778;7.196;2022-12-24T09:51:07;10.60;1.00
9824;DHT22;4951;50.778;7.196;2022-12-24T09:53:42;10.70;1.00
9824;DHT22;4951;50.778;7.196;2022-12-24T09:56:22;10.80;1.00
9824;DHT22;4951;50.778;7.196;2022-12-24T09:59:20;10.90;1.00
9824;DHT22;4951;50.778;7.196;2022-12-24T10:01:55;10.90;1.00
9824;DHT22;4951;50.778;7.196;2022-12-24T10:04:41;11.00;1.00
9824;DHT22;4951;50.778;7.196;2022-12-24T10:07:45;11.10;1.00
9824;DHT22;4951;50.778;7.196;2022-12-24T10:10:59;11.20;1.00
9824;DHT22;4951;50.778;7.196;2022-12-24T10:13:48;11.20;1.00
9824;DHT22;4951;50.778;7.196;2022-12-24T10:16:40;11.20;1.00
9824;DHT22;4951;50.778;7.196;2022-12-24T10:19:36;11.20;1.00
9824;DHT22;4951;50.778;7.196;2022-12-24T10:22:36;11.20;1.00
9824;DHT22;4951;50.778;7.196;2022-12-24T10:28:49;11.10;1.00
9824;DHT22;4951;50.778;7.196;2022-12-24T10:34:56;11.10;1.00
9824;DHT22;4951;50.778;7.196;2022-12-24T10:37:27;11.10;1.00
9824;DHT22;4951;50.778;7.196;2022-12-24T10:40:02;11.10;1.00
9824;DHT22;4951;50.778;7.196;2022-12-24T10:42:53;11.10;1.00
9824;DHT22;4951;50.778;7.196;2022-12-24T10:45:29;11.10;1.00
9824;DHT22;4951;50.778;7.196;2022-12-24T10:48:20;11.10;1.00
9824;DHT22;4951;50.778;7.196;2022-12-24T10:51:09;11.20;1.00
9824;DHT22;4951;50.778;7.196;2022-12-24T10:54:15;11.20;1.00
9824;DHT22;4951;50.778;7.196;2022-12-24T10:57:57;11.20;1.00
9824;DHT22;4951;50.778;7.196;2022-12-24T11:00:24;11.30;1.00
9824;DHT22;4951;50.778;7.196;2022-12-24T11:03:06;11.30;1.00
9824;DHT22;4951;50.778;7.196;2022-12-24T11:05:39;11.30;1.00
9824;DHT22;4951;50.778;7.196;2022-12-24T11:08:14;11.30;1.00
9824;DHT22;4951;50.778;7.196;2022-12-24T11:10:44;11.30;1.00
9824;DHT22;4951;50.778;7.196;2022-12-24T11:13:23;11.30;1.00
9824;DHT22;4951;50.778;7.196;2022-12-24T11:16:00;11.30;1.00
9824;DHT22;4951;50.778;7.196;2022-12-24T11:18:27;11.30;1.00
9824;DHT22;4951;50.778;7.196;2022-12-24T11:20:55;11.30;1.00
9824;DHT22;4951;50.778;7.196;2022-12-24T11:23:24;11.30;1.00
9824;DHT22;4951;50.778;7.196;2022-12-24T11:25:51;11.40;1.00
9824;DHT22;4951;50.778;7.196;2022-12-24T11:28:22;11.40;99.90
9824;DHT22;4951;50.778;7.196;2022-12-24T11:31:03;11.50;99.90
9824;DHT22;4951;50.778;7.196;2022-12-24T11:33:45;11.50;99.90
9824;DHT22;4951;50.778;7.196;2022-12-24T11:36:13;11.50;99.90
9824;DHT22;4951;50.778;7.196;2022-12-24T11:38:42;11.50;99.90
9824;DHT22;4951;50.778;7.196;2022-12-24T11:41:21;11.50;99.90
9824;DHT22;4951;50.778;7.196;2022-12-24T11:43:56;11.50;99.90
9824;DHT22;4951;50.778;7.196;2022-12-24T11:46:37;11.50;99.90
9824;DHT22;4951;50.778;7.196;2022-12-24T11:49:16;11.50;99.90
9824;DHT22;4951;50.778;7.196;2022-12-24T11:52:19;11.40;99.90
9824;DHT22;4951;50.778;7.196;2022-12-24T11:55:03;11.40;99.90
9824;DHT22;4951;50.778;7.196;2022-12-24T11:57:39;11.50;99.90
9824;DHT22;4951;50.778;7.196;2022-12-24T12:00:11;11.60;99.90
9824;DHT22;4951;50.778;7.196;2022-12-24T12:02:40;11.60;99.90
9824;DHT22;4951;50.778;7.196;2022-12-24T12:05:12;11.70;99.90
9824;DHT22;4951;50.778;7.196;2022-12-24T12:07:42;11.70;99.90
9824;DHT22;4951;50.778;7.196;2022-12-24T12:10:17;11.70;99.90
9824;DHT22;4951;50.778;7.196;2022-12-24T12:12:46;11.80;99.90
9824;DHT22;4951;50.778;7.196;2022-12-24T12:15:24;11.80;99.90
9824;DHT22;4951;50.778;7.196;2022-12-24T12:17:58;11.90;99.90
9824;DHT22;4951;50.778;7.196;2022-12-24T12:20:30;11.90;99.90
9824;DHT22;4951;50.778;7.196;2022-12-24T12:23:02;11.90;99.90
9824;DHT22;4951;50.778;7.196;2022-12-24T12:25:37;11.90;99.90
9824;DHT22;4951;50.778;7.196;2022-12-24T12:28:16;11.90;99.90
9824;DHT22;4951;50.778;7.196;2022-12-24T12:30:52;12.00;99.90
9824;DHT22;4951;50.778;7.196;2022-12-24T12:33:25;12.00;99.90
9824;DHT22;4951;50.778;7.196;2022-12-24T12:35:54;12.10;99.90
9824;DHT22;4951;50.778;7.196;2022-12-24T12:38:24;12.10;99.90
9824;DHT22;4951;50.778;7.196;2022-12-24T12:41:18;12.10;99.90
9824;DHT22;4951;50.778;7.196;2022-12-24T12:44:08;12.10;45.60
9824;DHT22;4951;50.778;7.196;2022-12-24T12:46:54;12.20;99.90
9824;DHT22;4951;50.778;7.196;2022-12-24T12:49:31;12.30;99.90
9824;DHT22;4951;50.778;7.196;2022-12-24T12:52:04;12.40;99.90
9824;DHT22;4951;50.778;7.196;2022-12-24T12:54:46;12.40;52.30
9824;DHT22;4951;50.778;7.196;2022-12-24T12:57:17;12.40;91.20
9824;DHT22;4951;50.778;7.196;2022-12-24T12:59:49;12.40;99.90
9824;DHT22;4951;50.778;7.196;2022-12-24T13:02:31;12.40;99.90
9824;DHT22;4951;50.778;7.196;2022-12-24T13:05:31;12.40;99.90
9824;DHT22;4951;50.778;7.196;2022-12-24T13:08:48;12.40;35.00
9824;DHT22;4951;50.778;7.196;2022-12-24T13:11:53;12.40;1.00
9824;DHT22;4951;50.778;7.196;2022-12-24T13:17:58;12.40;1.00
9824;DHT22;4951;50.778;7.196;2022-12-24T13:20:31;12.40;27.10
9824;DHT22;4951;50.778;7.196;2022-12-24T13:23:01;12.40;1.00
9824;DHT22;4951;50.778;7.196;2022-12-24T13:25:34;12.50;12.30
9824;DHT22;4951;50.778;7.196;2022-12-24T13:28:16;12.60;99.90
9824;DHT22;4951;50.778;7.196;2022-12-24T13:30:43;12.80;99.90
9824;DHT22;4951;50.778;7.196;2022-12-24T13:36:16;12.90;39.40
9824;DHT22;4951;50.778;7.196;2022-12-24T13:54:45;12.40;1.00
9824;DHT22;4951;50.778;7.196;2022-12-24T13:57:29;12.40;1.00
9824;DHT22;4951;50.778;7.196;2022-12-24T14:00:00;12.30;1.00
9824;DHT22;4951;50.778;7.196;2022-12-24T14:02:44;12.40;1.00
9824;DHT22;4951;50.778;7.196;2022-12-24T14:05:18;12.40;1.00
9824;DHT22;4951;50.778;7.196;2022-12-24T14:07:49;12.40;1.00
9824;DHT22;4951;50.778;7.196;2022-12-24T14:10:24;12.40;1.00
9824;DHT22;4951;50.778;7.196;2022-12-24T14:12:52;12.40;1.00
9824;DHT22;4951;50.778;7.196;2022-12-24T14:18:30;12.30;1.00
9824;DHT22;4951;50.778;7.196;2022-12-24T14:21:00;12.30;1.00
9824;DHT22;4951;50.778;7.196;2022-12-24T14:23:43;12.20;1.00
9824;DHT22;4951;50.778;7.196;2022-12-24T14:26:19;12.10;1.00
9824;DHT22;4951;50.778;7.196;2022-12-24T14:28:55;12.10;1.00
9824;DHT22;4951;50.778;7.196;2022-12-24T14:31:24;12.00;1.00
9824;DHT22;4951;50.778;7.196;2022-12-24T14:34:04;11.90;1.00
9824;DHT22;4951;50.778;7.196;2022-12-24T14:36:34;11.90;1.00
9824;DHT22;4951;50.778;7.196;2022-12-24T14:39:10;11.80;1.00
9824;DHT22;4951;50.778;7.196;2022-12-24T14:41:48;11.80;1.00
9824;DHT22;4951;50.778;7.196;2022-12-24T14:44:24;11.80;1.00
9824;DHT22;4951;50.778;7.196;2022-12-24T14:46:57;11.80;1.00
9824;DHT22;4951;50.778;7.196;2022-12-24T14:49:38;11.70;1.00
9824;DHT22;4951;50.778;7.196;2022-12-24T14:52:15;11.70;1.00
9824;DHT22;4951;50.778;7.196;2022-12-24T14:54:44;11.60;1.00
9824;DHT22;4951;50.778;7.196;2022-12-24T14:57:28;11.50;1.00
9824;DHT22;4951;50.778;7.196;2022-12-24T14:59:57;11.40;1.00
9824;DHT22;4951;50.778;7.196;2022-12-24T15:02:42;11.30;1.00
9824;DHT22;4951;50.778;7.196;2022-12-24T15:05:15;11.20;1.00
9824;DHT22;4951;50.778;7.196;2022-12-24T15:07:48;11.20;61.40
9824;DHT22;4951;50.778;7.196;2022-12-24T15:10:28;11.20;99.90
9824;DHT22;4951;50.778;7.196;2022-12-24T15:13:02;11.10;99.90
9824;DHT22;4951;50.778;7.196;2022-12-24T15:15:36;11.10;99.90
9824;DHT22;4951;50.778;7.196;2022-12-24T15:18:14;11.00;99.90
9824;DHT22;4951;50.778;7.196;2022-12-24T15:20:48;10.90;99.90
9824;DHT22;4951;50.778;7.196;2022-12-24T15:23:21;10.90;99.90
9824;DHT22;4951;50.778;7.196;2022-12-24T15:26:13;10.80;99.90
9824;DHT22;4951;50.778;7.196;2022-12-24T15:28:43;10.80;99.90
9824;DHT22;4951;50.778;7.196;2022-12-24T15:31:14;10.80;99.90
9824;DHT22;4951;50.778;7.196;2022-12-24T15:33:47;10.70;99.90
9824;DHT22;4951;50.778;7.196;2022-12-24T15:39:13;10.70;99.90
9824;DHT22;4951;50.778;7.196;2022-12-24T15:41:45;10.60;99.90
9824;DHT22;4951;50.778;7.196;2022-12-24T15:44:43;10.50;99.90
9824;DHT22;4951;50.778;7.196;2022-12-24T15:47:30;10.40;99.90
9824;DHT22;4951;50.778;7.196;2022-12-24T15:50:03;10.30;99.90
9824;DHT22;4951;50.778;7.196;2022-12-24T15:52:36;10.20;99.90
9824;DHT22;4951;50.778;7.196;2022-12-24T15:55:25;10.10;1.00
9824;DHT22;4951;50.778;7.196;2022-12-24T15:57:53;10.10;1.00
9824;DHT22;4951;50.778;7.196;2022-12-24T16:00:23;10.00;1.00
9824;DHT22;4951;50.778;7.196;2022-12-24T16:05:58;9.80;1.00
9824;DHT22;4951;50.778;7.196;2022-12-24T16:08:38;9.70;1.00
9824;DHT22;4951;50.778;7.196;2022-12-24T16:11:15;9.50;1.00
9824;DHT22;4951;50.778;7.196;2022-12-24T16:13:59;9.40;1.00
9824;DHT22;4951;50.778;7.196;2022-12-24T16:16:34;9.20;1.00
9824;DHT22;4951;50.778;7.196;2022-12-24T16:19:03;9.10;1.00
9824;DHT22;4951;50.778;7.196;2022-12-24T16:21:34;8.90;1.00
9824;DHT22;4951;50.778;7.196;2022-12-24T16:24:06;8.70;1.00
9824;DHT22;4951;50.778;7.196;2022-12-24T16:26:34;8.60;1.00
9824;DHT22;4951;50.778;7.196;2022-12-24T16:29:04;8.50;1.00
9824;DHT22;4951;50.778;7.196;2022-12-24T16:31:34;8.40;1.00
9824;DHT22;4951;50.778;7.196;2022-12-24T16:34:04;8.30;1.00
9824;DHT22;4951;50.778;7.196;2022-12-24T16:36:31;8.20;1.00
9824;DHT22;4951;50.778;7.196;2022-12-24T16:38:59;8.20;1.00
9824;DHT22;4951;50.778;7.196;2022-12-24T16:41:44;8.10;1.00
9824;DHT22;4951;50.778;7.196;2022-12-24T16:44:28;8.10;1.00
9824;DHT22;4951;50.778;7.196;2022-12-24T16:46:58;8.10;1.00
9824;DHT22;4951;50.778;7.196;2022-12-24T16:49:27;8.20;1.00
9824;DHT22;4951;50.778;7.196;2022-12-24T16:51:55;8.20;1.00
9824;DHT22;4951;50.778;7.196;2022-12-24T16:54:23;8.30;1.00
9824;DHT22;4951;50.778;7.196;2022-12-24T16:56:50;8.30;1.00
9824;DHT22;4951;50.778;7.196;2022-12-24T16:59:19;8.40;1.00
9824;DHT22;4951;50.778;7.196;2022-12-24T17:01:47;8.50;1.00
9824;DHT22;4951;50.778;7.196;2022-12-24T17:04:17;8.60;1.00
9824;DHT22;4951;50.778;7.196;2022-12-24T17:06:44;8.60;1.00
9824;DHT22;4951;50.778;7.196;2022-12-24T17:09:11;8.70;1.00
9824;DHT22;4951;50.778;7.196;2022-12-24T17:11:38;8.70;1.00
9824;DHT22;4951;50.778;7.196;2022-12-24T17:14:05;8.70;1.00
9824;DHT22;4951;50.778;7.196;2022-12-24T17:16:32;8.80;1.00
9824;DHT22;4951;50.778;7.196;2022-12-24T17:19:02;8.80;1.00
9824;DHT22;4951;50.778;7.196;2022-12-24T17:21:31;8.80;1.00
9824;DHT22;4951;50.778;7.196;2022-12-24T17:23:58;8.80;1.00
9824;DHT22;4951;50.778;7.196;2022-12-24T17:26:25;8.80;1.00
9824;DHT22;4951;50.778;7.196;2022-12-24T17:28:53;8.70;1.00
9824;DHT22;4951;50.778;7.196;2022-12-24T17:31:20;8.70;1.00
9824;DHT22;4951;50.778;7.196;2022-12-24T17:33:48;8.70;1.00
9824;DHT22;4951;50.778;7.196;2022-12-24T17:36:16;8.70;1.00
9824;DHT22;4951;50.778;7.196;2022-12-24T17:38:44;8.70;1.00
9824;DHT22;4951;50.778;7.196;2022-12-24T17:41:14;8.80;1.00
9824;DHT22;4951;50.778;7.196;2022-12-24T17:43:42;8.80;1.00
9824;DHT22;4951;50.778;7.196;2022-12-24T17:46:11;8.80;1.00
9824;DHT22;4951;50.778;7.196;2022-12-24T17:48:40;8.80;1.00
9824;DHT22;4951;50.778;7.196;2022-12-24T17:51:09;8.80;1.00
9824;DHT22;4951;50.778;7.196;2022-12-24T17:53:38;8.70;1.00
9824;DHT22;4951;50.778;7.196;2022-12-24T17:56:09;8.70;1.00
9824;DHT22;4951;50.778;7.196;2022-12-24T17:58:37;8.70;1.00
9824;DHT22;4951;50.778;7.196;2022-12-24T18:01:05;8.60;1.00
9824;DHT22;4951;50.778;7.196;2022-12-24T18:03:32;8.70;1.00
9824;DHT22;4951;50.778;7.196;2022-12-24T18:06:22;8.70;1.00